createdAt,value
2018-05-10T00:00:51.817Z,16.73
2018-05-10T00:03:19.939Z,16.34
2018-05-10T00:05:48.039Z,16.50
2018-05-10T00:18:01.135Z,16.89
2018-05-10T00:20:30.051Z,16.69
2018-05-10T00:22:58.153Z,16.88
2018-05-10T00:25:26.267Z,17.02
2018-05-10T00:27:55.377Z,17.03
2018-05-10T00:30:23.519Z,16.79
2018-05-10T00:32:51.631Z,17.10
2018-05-10T00:35:19.764Z,17.20
2018-05-10T00:37:47.866Z,16.94
2018-05-10T00:40:15.971Z,16.61
2018-05-10T00:42:44.139Z,16.62
2018-05-10T00:45:13.163Z,16.52
2018-05-10T00:47:41.279Z,16.46
2018-05-10T00:50:09.848Z,16.58
2018-05-10T00:52:37.907Z,16.67
2018-05-10T00:55:06.028Z,16.64
2018-05-10T00:57:39.713Z,16.87
2018-05-10T01:00:13.335Z,16.85
2018-05-10T01:02:41.438Z,17.00
2018-05-10T01:05:09.832Z,17.21
2018-05-10T01:07:37.924Z,17.20
2018-05-10T01:10:06.039Z,16.87
2018-05-10T01:12:34.990Z,17.09
2018-05-10T01:15:03.104Z,17.04
2018-05-10T01:17:31.218Z,17.27
2018-05-10T01:19:59.310Z,17.34
2018-05-10T01:22:27.411Z,17.34
2018-05-10T01:24:55.490Z,17.34
2018-05-10T01:27:23.582Z,17.31
2018-05-10T01:29:51.676Z,17.16
2018-05-10T01:32:19.797Z,17.18
2018-05-10T01:35:00.580Z,17.11
2018-05-10T01:37:28.670Z,17.03
2018-05-10T01:39:56.802Z,17.04
2018-05-10T01:42:24.904Z,17.09
2018-05-10T01:44:53.030Z,17.05
2018-05-10T01:47:21.139Z,17.07
2018-05-10T01:49:49.280Z,16.93
2018-05-10T01:52:17.373Z,16.99
2018-05-10T01:54:45.498Z,16.82
2018-05-10T01:57:13.585Z,16.89
2018-05-10T01:59:41.672Z,16.94
2018-05-10T02:02:09.818Z,17.05
2018-05-10T02:04:48.596Z,17.05
2018-05-10T02:07:16.677Z,17.13
2018-05-10T02:09:44.788Z,16.49
2018-05-10T02:12:12.908Z,16.46
2018-05-10T02:14:41.075Z,16.38
2018-05-10T02:17:09.128Z,16.15
2018-05-10T02:19:37.235Z,16.10
2018-05-10T02:22:05.712Z,16.19
2018-05-10T02:24:33.819Z,16.42
2018-05-10T02:27:01.900Z,16.34
2018-05-10T02:29:31.789Z,15.96
2018-05-10T02:31:59.888Z,16.25
2018-05-10T02:34:28.005Z,16.27
2018-05-10T02:37:01.685Z,16.46
2018-05-10T02:39:35.194Z,16.27
2018-05-10T02:42:03.960Z,16.13
2018-05-10T02:44:32.070Z,15.93
2018-05-10T02:47:00.173Z,16.33
2018-05-10T02:49:28.278Z,16.21
2018-05-10T02:51:57.132Z,16.11
2018-05-10T02:54:25.244Z,16.16
2018-05-10T02:56:53.738Z,15.91
2018-05-10T03:12:22.701Z,15.56
2018-05-10T03:14:50.810Z,15.49
2018-05-10T03:17:18.914Z,15.23
2018-05-10T03:19:46.999Z,15.27
2018-05-10T03:22:15.200Z,15.25
2018-05-10T03:24:43.344Z,15.25
2018-05-10T03:27:11.424Z,15.27
2018-05-10T03:29:39.528Z,15.21
2018-05-10T03:32:07.624Z,15.36
2018-05-10T03:34:35.768Z,15.25
2018-05-10T03:37:04.032Z,15.23
2018-05-10T03:39:37.826Z,15.20
2018-05-10T03:42:05.919Z,15.16
2018-05-10T03:44:34.610Z,15.22
2018-05-10T03:47:02.740Z,15.14
2018-05-10T03:49:30.839Z,15.27
2018-05-10T03:51:58.945Z,15.23
2018-05-10T03:54:27.056Z,15.05
2018-05-10T03:56:55.152Z,15.15
2018-05-10T03:59:23.249Z,14.93
2018-05-10T04:01:52.091Z,14.93
2018-05-10T04:04:44.244Z,15.30
2018-05-10T04:07:24.132Z,15.13
2018-05-10T04:10:04.094Z,15.23
2018-05-10T04:12:32.684Z,15.16
2018-05-10T04:15:00.819Z,15.42
2018-05-10T04:17:28.890Z,15.22
2018-05-10T04:19:57.360Z,15.47
2018-05-10T04:22:25.788Z,15.25
2018-05-10T04:24:58.842Z,15.35
2018-05-10T04:27:27.796Z,15.24
2018-05-10T04:29:56.546Z,15.21
2018-05-10T04:32:24.692Z,15.12
2018-05-10T04:34:58.230Z,15.04
2018-05-10T04:37:26.345Z,15.00
2018-05-10T04:39:54.435Z,15.01
2018-05-10T04:42:23.475Z,14.95
2018-05-10T04:44:51.591Z,14.78
2018-05-10T04:47:20.599Z,14.60
2018-05-10T04:49:48.687Z,14.52
2018-05-10T04:52:16.792Z,14.73
2018-05-10T04:54:44.968Z,14.90
2018-05-10T04:57:13.071Z,15.02
2018-05-10T04:59:41.190Z,15.00
2018-05-10T05:02:09.323Z,15.00
2018-05-10T05:04:37.439Z,15.06
2018-05-10T05:07:06.466Z,14.73
2018-05-10T05:09:35.330Z,14.89
2018-05-10T05:12:03.541Z,14.99
2018-05-10T05:14:31.532Z,15.10
2018-05-10T05:16:59.619Z,14.98
2018-05-10T05:32:28.610Z,14.45
2018-05-10T05:34:56.740Z,14.34
2018-05-10T05:37:25.196Z,14.54
2018-05-10T05:39:53.279Z,14.57
2018-05-10T05:42:21.389Z,14.52
2018-05-10T05:44:49.486Z,14.50
2018-05-10T05:47:17.591Z,14.54
2018-05-10T05:49:45.752Z,14.59
2018-05-10T05:52:13.846Z,14.77
2018-05-10T05:54:42.246Z,14.98
2018-05-10T05:57:10.346Z,14.99
2018-05-10T05:59:38.445Z,14.75
2018-05-10T06:02:07.223Z,14.97
2018-05-10T06:04:35.340Z,14.98
2018-05-10T06:07:04.289Z,14.80
2018-05-10T06:09:32.410Z,14.86
2018-05-10T06:12:00.518Z,14.89
2018-05-10T06:14:28.608Z,14.85
2018-05-10T06:16:56.718Z,14.97
2018-05-10T06:19:25.456Z,14.94
2018-05-10T06:21:53.550Z,14.97
2018-05-10T06:24:22.396Z,15.08
2018-05-10T06:26:50.530Z,15.18
2018-05-10T06:29:18.635Z,15.16
2018-05-10T06:31:46.728Z,15.33
2018-05-10T06:34:14.861Z,15.22
2018-05-10T06:36:42.952Z,15.14
2018-05-10T06:39:11.752Z,15.20
2018-05-10T06:41:39.859Z,15.08
2018-05-10T06:44:09.212Z,15.14
2018-05-10T06:46:37.345Z,15.31
2018-05-10T06:49:05.434Z,15.42
2018-05-10T06:51:33.563Z,15.18
2018-05-10T06:54:01.668Z,15.46
2018-05-10T06:56:29.767Z,15.23
2018-05-10T06:58:57.883Z,15.26
2018-05-10T07:01:26.243Z,15.15
2018-05-10T07:03:55.131Z,15.16
2018-05-10T07:06:23.227Z,15.30
2018-05-10T07:08:51.355Z,15.29
2018-05-10T07:11:19.472Z,15.24
2018-05-10T07:13:47.988Z,15.26
2018-05-10T07:16:16.107Z,15.31
2018-05-10T07:18:44.201Z,15.37
2018-05-10T07:21:17.971Z,15.33
2018-05-10T07:23:46.152Z,15.44
2018-05-10T07:26:14.225Z,15.58
2018-05-10T07:28:42.349Z,15.66
2018-05-10T07:31:10.437Z,15.79
2018-05-10T07:33:38.528Z,15.84
2018-05-10T07:36:06.675Z,15.83
2018-05-10T07:38:34.755Z,15.78
2018-05-10T07:41:02.860Z,15.71
2018-05-10T07:43:30.980Z,15.83
2018-05-10T07:45:59.088Z,16.01
2018-05-10T07:48:27.207Z,16.06
2018-05-10T07:50:55.307Z,15.88
2018-05-10T07:53:23.424Z,15.72
2018-05-10T07:55:51.553Z,15.89
2018-05-10T07:58:25.205Z,15.90
2018-05-10T08:00:56.029Z,15.88
2018-05-10T08:03:24.163Z,15.79
2018-05-10T08:05:52.280Z,15.82
2018-05-10T08:08:20.366Z,15.76
2018-05-10T08:10:48.705Z,15.61
2018-05-10T08:13:16.786Z,15.67
2018-05-10T08:15:44.940Z,15.76
2018-05-10T08:18:13.070Z,15.92
2018-05-10T08:20:41.167Z,15.68
2018-05-10T08:23:09.275Z,15.84
2018-05-10T08:25:37.370Z,15.88
2018-05-10T08:28:05.473Z,16.08
2018-05-10T08:30:33.584Z,16.21
2018-05-10T08:33:01.684Z,16.03
2018-05-10T08:35:29.774Z,15.99
2018-05-10T08:37:57.907Z,16.03
2018-05-10T08:40:25.997Z,15.87
2018-05-10T08:42:54.099Z,15.79
2018-05-10T08:45:22.199Z,15.87
2018-05-10T08:47:50.364Z,15.55
2018-05-10T08:50:18.467Z,15.53
2018-05-10T08:52:46.555Z,15.56
2018-05-10T08:55:14.669Z,15.47
2018-05-10T09:07:27.872Z,15.34
2018-05-10T09:09:55.889Z,15.22
2018-05-10T09:12:24.389Z,15.42
2018-05-10T09:14:52.541Z,15.31
2018-05-10T09:17:20.646Z,15.64
2018-05-10T09:32:48.767Z,16.02
2018-05-10T09:35:16.851Z,15.82
2018-05-10T09:37:44.969Z,15.85
2018-05-10T09:40:13.140Z,15.90
2018-05-10T09:42:41.240Z,16.06
2018-05-10T09:45:09.327Z,16.13
2018-05-10T09:47:37.452Z,16.04
2018-05-10T09:50:05.545Z,15.95
2018-05-10T09:52:33.722Z,15.88
2018-05-10T09:55:01.747Z,16.06
2018-05-10T09:57:29.858Z,16.23
2018-05-10T09:59:57.976Z,16.19
2018-05-10T10:02:26.396Z,16.42
2018-05-10T10:04:54.487Z,16.42
2018-05-10T10:07:23.593Z,16.46
2018-05-10T10:09:51.688Z,16.45
2018-05-10T10:12:20.628Z,16.41
2018-05-10T10:14:48.744Z,16.39
2018-05-10T10:17:16.827Z,16.18
2018-05-10T10:19:44.939Z,16.36
2018-05-10T10:22:13.082Z,16.42
2018-05-10T10:24:41.184Z,16.18
2018-05-10T10:27:09.287Z,16.42
2018-05-10T10:29:37.411Z,16.40
2018-05-10T10:32:05.862Z,16.47
2018-05-10T10:34:33.978Z,16.46
2018-05-10T10:37:02.028Z,16.53
2018-05-10T10:39:30.108Z,16.56
2018-05-10T10:41:58.188Z,16.64
2018-05-10T10:44:27.187Z,16.65
2018-05-10T10:46:55.319Z,16.83
2018-05-10T10:49:23.408Z,16.77
2018-05-10T10:51:51.580Z,17.06
2018-05-10T10:54:19.692Z,16.70
2018-05-10T10:56:47.778Z,16.41
2018-05-10T10:59:21.341Z,16.35
2018-05-10T11:01:49.553Z,16.37
2018-05-10T11:04:17.621Z,16.44
2018-05-10T11:06:46.380Z,16.61
2018-05-10T11:09:14.659Z,16.66
2018-05-10T11:11:43.521Z,16.79
2018-05-10T11:14:11.999Z,16.67
2018-05-10T11:16:40.246Z,16.74
2018-05-10T11:19:08.321Z,16.65
2018-05-10T11:21:36.422Z,16.58
2018-05-10T11:37:04.548Z,16.78
2018-05-10T11:39:38.240Z,16.79
2018-05-10T11:42:06.354Z,16.95
2018-05-10T11:44:35.490Z,17.14
2018-05-10T11:47:03.566Z,17.30
2018-05-10T11:49:31.681Z,16.76
2018-05-10T11:51:59.807Z,16.55
2018-05-10T11:54:27.919Z,16.53
2018-05-10T11:56:56.588Z,16.53
2018-05-10T11:59:24.979Z,16.35
2018-05-10T12:01:53.569Z,16.31
2018-05-10T12:04:21.713Z,16.52
2018-05-10T12:06:49.791Z,16.54
2018-05-10T12:09:17.927Z,16.71
2018-05-10T12:11:46.042Z,16.63
2018-05-10T12:14:14.309Z,16.66
2018-05-10T12:16:48.854Z,16.71
2018-05-10T12:19:17.003Z,16.91
2018-05-10T12:21:46.001Z,16.89
2018-05-10T12:24:14.272Z,16.89
2018-05-10T12:39:42.393Z,16.89
2018-05-10T12:42:10.474Z,16.95
2018-05-10T12:44:38.566Z,17.01
2018-05-10T12:47:06.701Z,16.98
2018-05-10T12:49:34.794Z,17.11
2018-05-10T12:52:02.870Z,17.07
2018-05-10T12:54:30.981Z,17.22
2018-05-10T12:56:59.089Z,17.23
2018-05-10T12:59:27.196Z,17.30
2018-05-10T13:01:55.360Z,17.38
2018-05-10T13:04:23.710Z,17.24
2018-05-10T13:06:51.845Z,17.18
2018-05-10T13:09:19.918Z,17.21
2018-05-10T13:11:48.011Z,17.20
2018-05-10T13:14:16.130Z,17.19
2018-05-10T13:16:45.000Z,17.33
2018-05-10T13:19:13.078Z,17.26
2018-05-10T13:21:41.921Z,17.14
2018-05-10T13:24:11.178Z,17.21
2018-05-10T13:26:39.260Z,17.05
2018-05-10T13:29:08.232Z,17.08
2018-05-10T13:44:36.347Z,17.00
2018-05-10T13:47:04.582Z,17.01
2018-05-10T13:49:33.267Z,16.91
2018-05-10T13:52:02.376Z,16.98
2018-05-10T13:54:30.503Z,17.14
2018-05-10T13:56:59.326Z,17.01
2018-05-10T13:59:27.421Z,16.71
2018-05-10T14:01:55.544Z,16.71
2018-05-10T14:04:24.848Z,16.84
2018-05-10T14:06:52.978Z,16.91
2018-05-10T14:09:21.056Z,16.90
2018-05-10T14:11:49.170Z,16.94
2018-05-10T14:14:17.299Z,17.01
2018-05-10T14:16:45.400Z,16.69
2018-05-10T14:19:13.489Z,16.75
2018-05-10T14:21:41.603Z,16.72
2018-05-10T14:24:09.742Z,16.78
2018-05-10T14:26:37.828Z,16.68
2018-05-10T14:29:05.940Z,16.38
2018-05-10T14:31:39.572Z,16.67
2018-05-10T14:34:07.720Z,16.54
2018-05-10T14:36:36.506Z,16.37
2018-05-10T14:39:06.127Z,16.33
2018-05-10T14:41:34.226Z,16.19
2018-05-10T14:44:02.367Z,16.31
2018-05-10T14:46:30.468Z,16.36
2018-05-10T14:48:58.569Z,16.25
2018-05-10T14:51:26.716Z,16.02
2018-05-10T14:53:54.815Z,15.90
2018-05-10T14:56:22.924Z,15.81
2018-05-10T14:58:51.072Z,15.71
2018-05-10T15:01:19.903Z,15.66
2018-05-10T15:03:48.000Z,15.60
2018-05-10T15:06:16.086Z,15.65
2018-05-10T15:08:44.237Z,15.77
2018-05-10T15:11:13.175Z,15.82
2018-05-10T15:13:46.865Z,15.77
2018-05-10T15:16:15.013Z,15.67
2018-05-10T15:18:43.106Z,15.46
2018-05-10T15:21:11.194Z,15.38
2018-05-10T15:23:39.354Z,15.46
2018-05-10T15:26:07.404Z,15.60
2018-05-10T15:28:35.494Z,15.47
2018-05-10T15:31:03.646Z,15.49
2018-05-10T15:33:31.757Z,15.56
2018-05-10T15:35:59.860Z,15.48
2018-05-10T15:38:28.932Z,15.59
2018-05-10T15:40:57.023Z,15.42
2018-05-10T15:43:25.137Z,15.59
2018-05-10T15:45:53.233Z,15.63
2018-05-10T15:48:21.328Z,15.37
2018-05-10T15:50:49.893Z,15.41
2018-05-10T15:53:23.611Z,15.30
2018-05-10T15:55:53.458Z,15.17
2018-05-10T15:58:21.538Z,15.29
2018-05-10T16:00:49.717Z,15.18
2018-05-10T16:03:17.817Z,15.20
2018-05-10T16:05:45.927Z,14.97
2018-05-10T16:08:14.023Z,15.02
2018-05-10T16:10:42.115Z,15.15
2018-05-10T16:13:10.241Z,15.00
2018-05-10T16:15:38.387Z,15.05
2018-05-10T16:18:07.392Z,14.92
2018-05-10T16:20:35.878Z,15.08
2018-05-10T16:23:04.313Z,14.84
2018-05-10T16:25:32.409Z,14.96
2018-05-10T16:28:01.363Z,15.17
2018-05-10T16:30:35.006Z,15.27
2018-05-10T16:33:03.107Z,15.18
2018-05-10T16:35:31.207Z,15.02
2018-05-10T16:38:00.039Z,14.83
2018-05-10T16:40:28.157Z,14.81
2018-05-10T16:55:56.282Z,14.22
2018-05-10T16:58:24.375Z,14.42
2018-05-10T17:00:52.903Z,14.68
2018-05-10T17:03:21.031Z,14.88
2018-05-10T17:05:49.749Z,14.72
2018-05-10T17:08:17.964Z,14.70
2018-05-10T17:10:46.048Z,14.72
2018-05-10T17:13:14.780Z,14.61
2018-05-10T17:15:42.895Z,14.56
2018-05-10T17:18:10.972Z,14.47
2018-05-10T17:20:39.088Z,14.45
2018-05-10T17:23:07.186Z,14.70
2018-05-10T17:25:35.368Z,14.92
2018-05-10T17:28:03.474Z,15.00
2018-05-10T17:30:31.580Z,14.98
2018-05-10T17:33:00.461Z,14.92
2018-05-10T17:35:28.532Z,14.99
2018-05-10T17:37:56.807Z,14.98
2018-05-10T17:40:25.698Z,15.00
2018-05-10T17:42:53.807Z,14.96
2018-05-10T17:45:21.911Z,14.99
2018-05-10T17:47:50.607Z,14.73
2018-05-10T17:50:18.710Z,14.86
2018-05-10T17:52:46.828Z,14.91
2018-05-10T17:55:14.919Z,15.04
2018-05-10T17:57:43.012Z,14.96
2018-05-10T18:00:11.119Z,14.84
2018-05-10T18:02:39.228Z,14.94
2018-05-10T18:05:07.324Z,15.07
2018-05-10T18:07:35.423Z,15.05
2018-05-10T18:10:03.541Z,15.14
2018-05-10T18:12:32.464Z,15.03
2018-05-10T18:15:00.583Z,14.97
2018-05-10T18:17:28.697Z,14.90
2018-05-10T18:19:56.779Z,14.90
2018-05-10T18:22:25.958Z,15.02
2018-05-10T18:24:54.043Z,15.04
2018-05-10T18:27:22.150Z,14.92
2018-05-10T18:29:50.271Z,15.01
2018-05-10T18:32:18.389Z,15.15
2018-05-10T18:47:51.506Z,14.96
2018-05-10T18:50:19.579Z,14.93
2018-05-10T18:52:48.017Z,15.11
2018-05-10T18:55:21.062Z,15.14
2018-05-10T18:57:49.233Z,14.81
2018-05-10T19:00:17.328Z,14.81
2018-05-10T19:02:46.146Z,14.64
2018-05-10T19:05:14.308Z,14.65
2018-05-10T19:07:42.409Z,14.61
2018-05-10T19:10:10.519Z,14.68
2018-05-10T19:12:38.666Z,14.72
2018-05-10T19:15:06.774Z,14.53
2018-05-10T19:17:35.256Z,14.56
2018-05-10T19:20:03.388Z,14.65
2018-05-10T19:22:31.484Z,14.56
2018-05-10T19:24:59.578Z,14.65
2018-05-10T19:27:33.343Z,14.52
2018-05-10T19:30:07.031Z,14.43
2018-05-10T19:32:35.221Z,14.55
2018-05-10T19:35:03.312Z,14.42
2018-05-10T19:37:31.477Z,14.54
2018-05-10T19:39:59.593Z,14.29
2018-05-10T19:42:27.676Z,14.32
2018-05-10T19:44:55.783Z,14.28
2018-05-10T19:47:23.867Z,14.32
2018-05-10T19:49:52.431Z,14.45
2018-05-10T19:52:20.573Z,14.52
2018-05-10T19:54:48.974Z,14.66
2018-05-10T19:57:17.090Z,14.42
2018-05-10T19:59:45.204Z,14.38
2018-05-10T20:15:13.313Z,14.31
2018-05-10T20:17:41.407Z,14.36
2018-05-10T20:20:09.527Z,14.15
2018-05-10T20:22:37.635Z,14.33
2018-05-10T20:25:05.809Z,14.28
2018-05-10T20:27:33.910Z,14.17
2018-05-10T20:30:02.023Z,14.34
2018-05-10T20:32:30.218Z,14.00
2018-05-10T20:34:58.215Z,13.86
2018-05-10T20:37:31.950Z,14.13
2018-05-10T20:40:00.080Z,14.11
2018-05-10T20:42:28.182Z,14.15
2018-05-10T20:44:56.311Z,14.02
2018-05-10T20:47:24.404Z,14.22
2018-05-10T20:49:52.483Z,14.15
2018-05-10T20:52:20.795Z,14.24
2018-05-10T20:54:48.907Z,14.14
2018-05-10T20:57:17.949Z,14.18
2018-05-10T20:59:46.093Z,14.00
2018-05-10T21:02:14.231Z,14.04
2018-05-10T21:04:42.331Z,14.03
2018-05-10T21:07:10.996Z,13.94
2018-05-10T21:09:39.967Z,14.05
2018-05-10T21:12:08.053Z,14.00
2018-05-10T21:14:36.154Z,13.91
2018-05-10T21:17:04.235Z,13.90
2018-05-10T21:19:32.387Z,14.03
2018-05-10T21:22:00.495Z,14.19
2018-05-10T21:24:29.141Z,14.15
2018-05-10T21:26:58.057Z,13.87
2018-05-10T21:29:26.212Z,13.99
2018-05-10T21:31:54.584Z,13.91
2018-05-10T21:34:22.991Z,14.15
2018-05-10T21:36:51.113Z,14.15
2018-05-10T21:39:19.217Z,14.11
2018-05-10T21:41:47.335Z,13.97
2018-05-10T21:44:15.425Z,13.98
2018-05-10T21:46:43.550Z,13.84
2018-05-10T21:49:23.439Z,13.72
2018-05-10T21:51:52.356Z,13.71
2018-05-10T21:54:21.340Z,13.81
2018-05-10T21:56:49.431Z,13.84
2018-05-10T21:59:23.123Z,13.57
2018-05-10T22:01:51.239Z,13.86
2018-05-10T22:04:19.323Z,13.92
2018-05-10T22:06:47.491Z,13.87
2018-05-10T22:09:15.821Z,13.61
2018-05-10T22:11:43.915Z,13.47
2018-05-10T22:14:12.015Z,13.71
2018-05-10T22:16:46.428Z,13.62
2018-05-10T22:19:14.555Z,13.62
2018-05-10T22:21:42.734Z,13.47
2018-05-10T22:24:10.839Z,13.24
2018-05-10T22:26:38.995Z,13.61
2018-05-10T22:29:07.116Z,13.75
2018-05-10T22:31:35.229Z,13.85
2018-05-10T22:34:03.307Z,13.85
2018-05-10T22:36:31.395Z,13.93
2018-05-10T22:38:59.975Z,13.95
2018-05-10T22:41:28.062Z,13.71
2018-05-10T22:43:56.171Z,13.62
2018-05-10T22:46:24.267Z,13.54
2018-05-10T22:48:52.362Z,13.65
2018-05-10T22:51:21.383Z,13.72
2018-05-10T22:53:49.480Z,13.92
2018-05-10T22:56:24.201Z,13.93
2018-05-10T22:58:57.839Z,14.01
2018-05-10T23:01:25.967Z,13.93
2018-05-10T23:16:54.084Z,13.90
2018-05-10T23:19:22.191Z,13.83
2018-05-10T23:21:50.278Z,13.82
2018-05-10T23:24:18.393Z,13.82
2018-05-10T23:26:46.543Z,13.83
2018-05-10T23:29:15.185Z,13.81
2018-05-10T23:31:48.779Z,13.67
2018-05-10T23:34:16.867Z,13.81
2018-05-10T23:36:44.994Z,13.66
2018-05-10T23:39:13.139Z,13.81
2018-05-10T23:41:41.207Z,13.63
2018-05-10T23:44:09.292Z,13.66
2018-05-10T23:46:37.512Z,13.53
2018-05-10T23:49:05.627Z,13.51
2018-05-10T23:51:33.779Z,13.46
2018-05-10T23:54:01.875Z,13.67
2018-05-10T23:56:30.760Z,13.70
2018-05-10T23:58:58.856Z,13.58
